sensor_id;sensor_type;location;lat;lon;timestamp;pressure;altitude;pressure_sealevel;temperature;humidity
32081;BME280;18593;51.426;7.030;2023-08-30T00:00:21;99863.03;;;16.82;70.12
32081;BME280;18593;51.426;7.030;2023-08-30T00:02:48;99863.31;;;16.80;70.34
32081;BME280;18593;51.426;7.030;2023-08-30T00:05:16;99858.44;;;16.77;70.20
32081;BME280;18593;51.426;7.030;2023-08-30T00:07:44;99873.81;;;16.77;69.95
32081;BME280;18593;51.426;7.030;2023-08-30T00:10:11;99866.25;;;16.73;69.75
32081;BME280;18593;51.426;7.030;2023-08-30T00:12:38;99864.06;;;16.70;70.07
32081;BME280;18593;51.426;7.030;2023-08-30T00:15:08;99858.97;;;16.69;69.85
32081;BME280;18593;51.426;7.030;2023-08-30T00:17:36;99861.38;;;16.65;69.82
32081;BME280;18593;51.426;7.030;2023-08-30T00:20:04;99861.63;;;16.64;70.01
32081;BME280;18593;51.426;7.030;2023-08-30T00:22:32;99856.50;;;16.62;69.99
32081;BME280;18593;51.426;7.030;2023-08-30T00:25:00;99855.69;;;16.62;70.14
32081;BME280;18593;51.426;7.030;2023-08-30T00:27:27;99859.47;;;16.61;70.08
32081;BME280;18593;51.426;7.030;2023-08-30T00:29:54;99863.25;;;16.60;70.39
32081;BME280;18593;51.426;7.030;2023-08-30T00:32:23;99858.09;;;16.58;70.36
32081;BME280;18593;51.426;7.030;2023-08-30T00:34:50;99861.59;;;16.59;70.45
32081;BME280;18593;51.426;7.030;2023-08-30T00:37:18;99865.38;;;16.58;70.42
32081;BME280;18593;51.426;7.030;2023-08-30T00:39:45;99858.38;;;16.57;70.59
32081;BME280;18593;51.426;7.030;2023-08-30T00:42:13;99845.44;;;16.54;70.66
32081;BME280;18593;51.426;7.030;2023-08-30T00:44:40;99848.94;;;16.54;70.70
32081;BME280;18593;51.426;7.030;2023-08-30T00:47:08;99849.78;;;16.55;70.64
32081;BME280;18593;51.426;7.030;2023-08-30T00:49:36;99852.72;;;16.53;70.56
32081;BME280;18593;51.426;7.030;2023-08-30T00:52:08;99852.72;;;16.53;70.65
32081;BME280;18593;51.426;7.030;2023-08-30T00:54:36;99846.81;;;16.51;70.52
32081;BME280;18593;51.426;7.030;2023-08-30T00:57:05;99848.69;;;16.51;70.39
32081;BME280;18593;51.426;7.030;2023-08-30T00:59:33;99851.63;;;16.49;70.20
32081;BME280;18593;51.426;7.030;2023-08-30T01:02:01;99846.50;;;16.47;70.21
32081;BME280;18593;51.426;7.030;2023-08-30T01:04:29;99852.97;;;16.46;70.17
32081;BME280;18593;51.426;7.030;2023-08-30T01:06:57;99845.19;;;16.45;70.24
32081;BME280;18593;51.426;7.030;2023-08-30T01:09:26;99851.06;;;16.42;70.27
32081;BME280;18593;51.426;7.030;2023-08-30T01:11:59;99839.50;;;16.41;70.34
32081;BME280;18593;51.426;7.030;2023-08-30T01:14:34;99837.91;;;16.40;70.25
32081;BME280;18593;51.426;7.030;2023-08-30T01:17:05;99828.44;;;16.38;70.11
32081;BME280;18593;51.426;7.030;2023-08-30T01:19:42;99820.66;;;16.36;70.43
32081;BME280;18593;51.426;7.030;2023-08-30T01:22:21;99825.22;;;16.36;70.54
32081;BME280;18593;51.426;7.030;2023-08-30T01:25:09;99814.47;;;16.36;70.50
32081;BME280;18593;51.426;7.030;2023-08-30T01:27:41;99819.28;;;16.34;70.40
32081;BME280;18593;51.426;7.030;2023-08-30T01:30:11;99814.97;;;16.33;70.37
32081;BME280;18593;51.426;7.030;2023-08-30T01:32:39;99814.97;;;16.33;70.26
32081;BME280;18593;51.426;7.030;2023-08-30T01:35:08;99808.78;;;16.32;70.37
32081;BME280;18593;51.426;7.030;2023-08-30T01:37:35;99812.56;;;16.31;70.22
32081;BME280;18593;51.426;7.030;2023-08-30T01:40:05;99816.34;;;16.30;70.26
32081;BME280;18593;51.426;7.030;2023-08-30T01:42:34;99812.00;;;16.29;70.17
32081;BME280;18593;51.426;7.030;2023-08-30T01:45:09;99812.28;;;16.28;70.37
32081;BME280;18593;51.426;7.030;2023-08-30T01:47:41;99814.97;;;16.28;70.37
32081;BME280;18593;51.426;7.030;2023-08-30T01:50:10;99809.06;;;16.26;70.14
32081;BME280;18593;51.426;7.030;2023-08-30T01:52:38;99806.59;;;16.24;70.43
32081;BME280;18593;51.426;7.030;2023-08-30T01:55:07;99813.88;;;16.23;70.48
32081;BME280;18593;51.426;7.030;2023-08-30T01:57:35;99804.47;;;16.21;70.12
32081;BME280;18593;51.426;7.030;2023-08-30T02:00:06;99803.09;;;16.18;70.14
32081;BME280;18593;51.426;7.030;2023-08-30T02:02:41;99810.38;;;16.18;70.08
32081;BME280;18593;51.426;7.030;2023-08-30T02:05:09;99809.84;;;16.16;70.08
32081;BME280;18593;51.426;7.030;2023-08-30T02:07:46;99814.66;;;16.14;70.27
32081;BME280;18593;51.426;7.030;2023-08-30T02:10:23;99820.03;;;16.14;70.19
32081;BME280;18593;51.426;7.030;2023-08-30T02:12:54;99822.19;;;16.12;70.22
32081;BME280;18593;51.426;7.030;2023-08-30T02:15:25;99828.09;;;16.09;70.24
32081;BME280;18593;51.426;7.030;2023-08-30T02:17:54;99822.19;;;16.07;70.11
32081;BME280;18593;51.426;7.030;2023-08-30T02:20:23;99816.78;;;16.07;70.09
32081;BME280;18593;51.426;7.030;2023-08-30T02:22:50;99820.00;;;16.04;70.17
32081;BME280;18593;51.426;7.030;2023-08-30T02:25:18;99823.22;;;16.01;70.26
32081;BME280;18593;51.426;7.030;2023-08-30T02:27:49;99818.91;;;16.00;69.85
32081;BME280;18593;51.426;7.030;2023-08-30T02:30:17;99814.88;;;15.97;69.83
32081;BME280;18593;51.426;7.030;2023-08-30T02:32:47;99825.63;;;15.97;69.91
32081;BME280;18593;51.426;7.030;2023-08-30T02:35:16;99829.63;;;15.94;69.91
32081;BME280;18593;51.426;7.030;2023-08-30T02:37:44;99831.00;;;15.92;70.14
32081;BME280;18593;51.426;7.030;2023-08-30T02:40:11;99832.59;;;15.93;70.17
32081;BME280;18593;51.426;7.030;2023-08-30T02:42:39;99822.13;;;15.91;70.40
32081;BME280;18593;51.426;7.030;2023-08-30T02:45:07;99816.75;;;15.91;70.44
32081;BME280;18593;51.426;7.030;2023-08-30T02:47:35;99811.34;;;15.91;70.65
32081;BME280;18593;51.426;7.030;2023-08-30T02:50:04;99811.34;;;15.91;70.64
32081;BME280;18593;51.426;7.030;2023-08-30T02:52:33;99803.28;;;15.91;70.67
32081;BME280;18593;51.426;7.030;2023-08-30T02:55:00;99798.72;;;15.92;70.80
32081;BME280;18593;51.426;7.030;2023-08-30T02:57:28;99790.88;;;15.90;70.49
32081;BME280;18593;51.426;7.030;2023-08-30T02:59:55;99795.47;;;15.90;70.72
32081;BME280;18593;51.426;7.030;2023-08-30T03:02:22;99783.38;;;15.87;70.63
32081;BME280;18593;51.426;7.030;2023-08-30T03:04:50;99790.88;;;15.85;70.34
32081;BME280;18593;51.426;7.030;2023-08-30T03:07:21;99789.00;;;15.86;70.46
32081;BME280;18593;51.426;7.030;2023-08-30T03:09:52;99789.25;;;15.84;70.57
32081;BME280;18593;51.426;7.030;2023-08-30T03:12:20;99787.66;;;15.83;70.53
32081;BME280;18593;51.426;7.030;2023-08-30T03:14:47;99779.56;;;15.83;70.61
32081;BME280;18593;51.426;7.030;2023-08-30T03:17:14;99789.53;;;15.83;70.66
32081;BME280;18593;51.426;7.030;2023-08-30T03:19:42;99789.53;;;15.83;70.68
32081;BME280;18593;51.426;7.030;2023-08-30T03:22:09;99787.91;;;15.82;70.51
32081;BME280;18593;51.426;7.030;2023-08-30T03:24:37;99791.13;;;15.79;70.55
32081;BME280;18593;51.426;7.030;2023-08-30T03:27:05;99777.94;;;15.77;70.32
32081;BME280;18593;51.426;7.030;2023-08-30T03:29:32;99779.28;;;15.75;70.35
32081;BME280;18593;51.426;7.030;2023-08-30T03:31:59;99778.97;;;15.71;70.47
32081;BME280;18593;51.426;7.030;2023-08-30T03:34:26;99773.88;;;15.69;70.45
32081;BME280;18593;51.426;7.030;2023-08-30T03:36:53;99771.44;;;15.68;70.48
32081;BME280;18593;51.426;7.030;2023-08-30T03:39:21;99774.41;;;15.66;70.46
32081;BME280;18593;51.426;7.030;2023-08-30T03:41:50;99769.28;;;15.65;70.35
32081;BME280;18593;51.426;7.030;2023-08-30T03:44:17;99766.59;;;15.65;70.24
32081;BME280;18593;51.426;7.030;2023-08-30T03:46:46;99769.53;;;15.63;70.32
32081;BME280;18593;51.426;7.030;2023-08-30T03:49:13;99767.91;;;15.62;70.36
32081;BME280;18593;51.426;7.030;2023-08-30T03:51:40;99771.91;;;15.60;70.54
32081;BME280;18593;51.426;7.030;2023-08-30T03:54:07;99775.66;;;15.59;70.61
32081;BME280;18593;51.426;7.030;2023-08-30T03:56:39;99770.56;;;15.57;70.47
32081;BME280;18593;51.426;7.030;2023-08-30T03:59:07;99775.13;;;15.57;70.34
32081;BME280;18593;51.426;7.030;2023-08-30T04:01:35;99763.53;;;15.56;70.46
32081;BME280;18593;51.426;7.030;2023-08-30T04:04:02;99769.19;;;15.55;70.43
32081;BME280;18593;51.426;7.030;2023-08-30T04:06:31;99759.78;;;15.52;70.26
32081;BME280;18593;51.426;7.030;2023-08-30T04:08:58;99764.34;;;15.52;70.03
32081;BME280;18593;51.426;7.030;2023-08-30T04:11:25;99761.09;;;15.50;69.88
32081;BME280;18593;51.426;7.030;2023-08-30T04:13:52;99753.56;;;15.46;69.70
32081;BME280;18593;51.426;7.030;2023-08-30T04:16:21;99751.94;;;15.45;69.58
32081;BME280;18593;51.426;7.030;2023-08-30T04:18:48;99757.59;;;15.44;69.58
32081;BME280;18593;51.426;7.030;2023-08-30T04:21:15;99755.72;;;15.44;69.64
32081;BME280;18593;51.426;7.030;2023-08-30T04:23:43;99753.53;;;15.41;69.60
32081;BME280;18593;51.426;7.030;2023-08-30T04:26:10;99751.38;;;15.38;69.59
32081;BME280;18593;51.426;7.030;2023-08-30T04:28:38;99746.00;;;15.38;69.48
32081;BME280;18593;51.426;7.030;2023-08-30T04:31:05;99747.31;;;15.36;69.42
32081;BME280;18593;51.426;7.030;2023-08-30T04:33:34;99742.50;;;15.33;69.69
32081;BME280;18593;51.426;7.030;2023-08-30T04:36:04;99741.91;;;15.31;69.63
32081;BME280;18593;51.426;7.030;2023-08-30T04:38:32;99735.22;;;15.28;69.43
32081;BME280;18593;51.426;7.030;2023-08-30T04:40:59;99741.63;;;15.27;69.32
32081;BME280;18593;51.426;7.030;2023-08-30T04:43:27;99736.53;;;15.26;69.03
32081;BME280;18593;51.426;7.030;2023-08-30T04:45:54;99739.75;;;15.23;69.15
32081;BME280;18593;51.426;7.030;2023-08-30T04:48:23;99742.66;;;15.21;69.23
32081;BME280;18593;51.426;7.030;2023-08-30T04:51:00;99737.56;;;15.19;69.18
32081;BME280;18593;51.426;7.030;2023-08-30T04:53:29;99735.16;;;15.18;69.13
32081;BME280;18593;51.426;7.030;2023-08-30T04:55:58;99732.47;;;15.18;69.00
32081;BME280;18593;51.426;7.030;2023-08-30T04:58:27;99718.19;;;15.17;69.10
32081;BME280;18593;51.426;7.030;2023-08-30T05:00:56;99723.06;;;15.20;69.25
32081;BME280;18593;51.426;7.030;2023-08-30T05:03:23;99716.09;;;15.19;69.29
32081;BME280;18593;51.426;7.030;2023-08-30T05:05:51;99709.91;;;15.19;69.28
32081;BME280;18593;51.426;7.030;2023-08-30T05:08:19;99713.91;;;15.16;69.30
32081;BME280;18593;51.426;7.030;2023-08-30T05:10:48;99710.94;;;15.13;69.66
32081;BME280;18593;51.426;7.030;2023-08-30T05:13:16;99713.91;;;15.16;69.70
32081;BME280;18593;51.426;7.030;2023-08-30T05:15:43;99715.50;;;15.17;69.73
32081;BME280;18593;51.426;7.030;2023-08-30T05:18:11;99710.97;;;15.18;69.82
32081;BME280;18593;51.426;7.030;2023-08-30T05:20:38;99702.09;;;15.17;70.21
32081;BME280;18593;51.426;7.030;2023-08-30T05:23:05;99695.66;;;15.18;69.97
32081;BME280;18593;51.426;7.030;2023-08-30T05:25:34;99691.34;;;15.17;70.18
32081;BME280;18593;51.426;7.030;2023-08-30T05:28:02;99693.22;;;15.17;70.41
32081;BME280;18593;51.426;7.030;2023-08-30T05:30:30;99679.78;;;15.17;70.46
32081;BME280;18593;51.426;7.030;2023-08-30T05:32:59;99683.28;;;15.17;70.60
32081;BME280;18593;51.426;7.030;2023-08-30T05:35:55;99679.28;;;15.20;70.81
32081;BME280;18593;51.426;7.030;2023-08-30T05:38:41;99686.81;;;15.23;70.87
32081;BME280;18593;51.426;7.030;2023-08-30T05:41:36;99680.38;;;15.24;71.28
32081;BME280;18593;51.426;7.030;2023-08-30T05:44:05;99679.31;;;15.30;71.53
32081;BME280;18593;51.426;7.030;2023-08-30T05:46:33;99672.63;;;15.33;71.92
32081;BME280;18593;51.426;7.030;2023-08-30T05:49:00;99667.00;;;15.34;72.05
32081;BME280;18593;51.426;7.030;2023-08-30T05:51:29;99670.78;;;15.38;72.29
32081;BME280;18593;51.426;7.030;2023-08-30T05:53:56;99658.41;;;15.37;72.18
32081;BME280;18593;51.426;7.030;2023-08-30T05:56:24;99660.28;;;15.42;72.55
32081;BME280;18593;51.426;7.030;2023-08-30T05:58:52;99665.72;;;15.47;72.62
32081;BME280;18593;51.426;7.030;2023-08-30T06:01:21;99655.78;;;15.53;73.01
32081;BME280;18593;51.426;7.030;2023-08-30T06:03:49;99661.41;;;15.56;73.16
32081;BME280;18593;51.426;7.030;2023-08-30T06:06:16;99658.22;;;15.59;73.52
32081;BME280;18593;51.426;7.030;2023-08-30T06:08:43;99655.25;;;15.61;73.36
32081;BME280;18593;51.426;7.030;2023-08-30T06:11:10;99653.69;;;15.65;73.71
32081;BME280;18593;51.426;7.030;2023-08-30T06:13:38;99654.25;;;15.67;74.00
32081;BME280;18593;51.426;7.030;2023-08-30T06:16:07;99652.91;;;15.69;74.11
32081;BME280;18593;51.426;7.030;2023-08-30T06:18:34;99655.59;;;15.75;74.30
32081;BME280;18593;51.426;7.030;2023-08-30T06:21:03;99640.81;;;15.77;74.48
32081;BME280;18593;51.426;7.030;2023-08-30T06:23:30;99642.97;;;15.80;74.74
32081;BME280;18593;51.426;7.030;2023-08-30T06:25:58;99645.66;;;15.85;74.77
32081;BME280;18593;51.426;7.030;2023-08-30T06:28:26;99651.03;;;15.90;74.81
32081;BME280;18593;51.426;7.030;2023-08-30T06:30:53;99648.38;;;15.95;75.24
32081;BME280;18593;51.426;7.030;2023-08-30T06:33:22;99646.50;;;16.01;75.54
32081;BME280;18593;51.426;7.030;2023-08-30T06:35:51;99647.31;;;16.07;75.41
32081;BME280;18593;51.426;7.030;2023-08-30T06:38:19;99641.66;;;16.13;75.28
32081;BME280;18593;51.426;7.030;2023-08-30T06:40:46;99642.75;;;16.22;75.04
32081;BME280;18593;51.426;7.030;2023-08-30T06:43:15;99637.91;;;16.30;74.80
32081;BME280;18593;51.426;7.030;2023-08-30T06:45:42;99633.88;;;16.37;74.28
32081;BME280;18593;51.426;7.030;2023-08-30T06:48:09;99636.56;;;16.47;74.03
32081;BME280;18593;51.426;7.030;2023-08-30T06:50:38;99638.16;;;16.54;73.98
32081;BME280;18593;51.426;7.030;2023-08-30T06:53:05;99633.56;;;16.54;73.96
32081;BME280;18593;51.426;7.030;2023-08-30T06:55:33;99641.13;;;16.62;73.42
32081;BME280;18593;51.426;7.030;2023-08-30T06:58:02;99639.50;;;16.66;73.49
32081;BME280;18593;51.426;7.030;2023-08-30T07:00:29;99626.88;;;16.72;72.92
32081;BME280;18593;51.426;7.030;2023-08-30T07:02:56;99627.41;;;16.79;72.58
32081;BME280;18593;51.426;7.030;2023-08-30T07:05:24;99621.44;;;16.82;72.98
32081;BME280;18593;51.426;7.030;2023-08-30T07:07:52;99618.75;;;16.82;72.25
32081;BME280;18593;51.426;7.030;2023-08-30T07:10:19;99616.34;;;16.86;72.24
32081;BME280;18593;51.426;7.030;2023-08-30T07:12:47;99625.75;;;16.93;71.98
32081;BME280;18593;51.426;7.030;2023-08-30T07:15:15;99619.53;;;16.93;71.91
32081;BME280;18593;51.426;7.030;2023-08-30T07:17:43;99620.88;;;17.01;72.02
32081;BME280;18593;51.426;7.030;2023-08-30T07:20:11;99619.78;;;17.02;71.38
32081;BME280;18593;51.426;7.030;2023-08-30T07:22:39;99616.81;;;17.08;71.85
32081;BME280;18593;51.426;7.030;2023-08-30T07:25:08;99616.22;;;17.16;72.25
32081;BME280;18593;51.426;7.030;2023-08-30T07:27:36;99610.81;;;17.21;72.38
32081;BME280;18593;51.426;7.030;2023-08-30T07:30:05;99611.91;;;17.20;70.71
32081;BME280;18593;51.426;7.030;2023-08-30T07:32:33;99613.25;;;17.23;70.90
32081;BME280;18593;51.426;7.030;2023-08-30T07:35:02;99614.84;;;17.24;70.65
32081;BME280;18593;51.426;7.030;2023-08-30T07:37:29;99601.88;;;17.31;70.16
32081;BME280;18593;51.426;7.030;2023-08-30T07:39:56;99605.34;;;17.37;70.43
32081;BME280;18593;51.426;7.030;2023-08-30T07:42:25;99610.16;;;17.45;69.93
32081;BME280;18593;51.426;7.030;2023-08-30T07:44:52;99603.44;;;17.47;69.72
32081;BME280;18593;51.426;7.030;2023-08-30T07:47:19;99600.16;;;17.50;68.35
32081;BME280;18593;51.426;7.030;2023-08-30T07:49:47;99595.53;;;17.56;69.51
32081;BME280;18593;51.426;7.030;2023-08-30T07:52:14;99597.66;;;17.64;69.08
32081;BME280;18593;51.426;7.030;2023-08-30T07:54:42;99599.00;;;17.67;68.27
32081;BME280;18593;51.426;7.030;2023-08-30T07:57:09;99599.22;;;17.75;69.31
32081;BME280;18593;51.426;7.030;2023-08-30T07:59:38;99595.94;;;17.84;68.26
32081;BME280;18593;51.426;7.030;2023-08-30T08:02:05;99593.75;;;17.86;67.84
32081;BME280;18593;51.426;7.030;2023-08-30T08:04:33;99599.13;;;17.91;66.12
32081;BME280;18593;51.426;7.030;2023-08-30T08:07:01;99592.38;;;17.93;66.51
32081;BME280;18593;51.426;7.030;2023-08-30T08:09:29;99595.59;;;17.95;64.67
32081;BME280;18593;51.426;7.030;2023-08-30T08:11:56;99593.94;;;17.99;63.96
32081;BME280;18593;51.426;7.030;2023-08-30T08:14:23;99600.38;;;18.04;64.52
32081;BME280;18593;51.426;7.030;2023-08-30T08:16:52;99598.22;;;18.06;63.21
32081;BME280;18593;51.426;7.030;2023-08-30T08:19:19;99590.66;;;18.08;64.21
32081;BME280;18593;51.426;7.030;2023-08-30T08:21:47;99586.31;;;18.12;62.92
32081;BME280;18593;51.426;7.030;2023-08-30T08:24:15;99589.75;;;18.17;64.22
32081;BME280;18593;51.426;7.030;2023-08-30T08:26:42;99590.00;;;18.21;65.57
32081;BME280;18593;51.426;7.030;2023-08-30T08:29:10;99582.41;;;18.23;64.36
32081;BME280;18593;51.426;7.030;2023-08-30T08:31:37;99582.97;;;18.20;62.69
32081;BME280;18593;51.426;7.030;2023-08-30T08:34:11;99591.06;;;18.20;63.14
32081;BME280;18593;51.426;7.030;2023-08-30T08:36:39;99587.31;;;18.21;63.22
32081;BME280;18593;51.426;7.030;2023-08-30T08:39:08;99589.19;;;18.20;62.56
32081;BME280;18593;51.426;7.030;2023-08-30T08:41:40;99592.69;;;18.21;62.97
32081;BME280;18593;51.426;7.030;2023-08-30T08:44:08;99582.50;;;18.13;63.19
32081;BME280;18593;51.426;7.030;2023-08-30T08:46:39;99588.75;;;18.08;63.79
32081;BME280;18593;51.426;7.030;2023-08-30T08:49:12;99583.06;;;18.10;65.56
32081;BME280;18593;51.426;7.030;2023-08-30T08:51:41;99580.66;;;18.08;63.55
32081;BME280;18593;51.426;7.030;2023-08-30T08:54:11;99582.25;;;18.09;63.61
32081;BME280;18593;51.426;7.030;2023-08-30T08:56:39;99582.50;;;18.13;65.40
32081;BME280;18593;51.426;7.030;2023-08-30T08:59:06;99576.56;;;18.16;64.37
32081;BME280;18593;51.426;7.030;2023-08-30T09:01:35;99581.09;;;18.20;63.98
32081;BME280;18593;51.426;7.030;2023-08-30T09:04:06;99575.13;;;18.23;64.32
32081;BME280;18593;51.426;7.030;2023-08-30T09:06:35;99576.72;;;18.24;64.70
32081;BME280;18593;51.426;7.030;2023-08-30T09:09:04;99579.22;;;18.21;63.97
32081;BME280;18593;51.426;7.030;2023-08-30T09:11:32;99588.63;;;18.23;64.08
32081;BME280;18593;51.426;7.030;2023-08-30T09:13:59;99574.56;;;18.26;63.89
32081;BME280;18593;51.426;7.030;2023-08-30T09:16:27;99584.22;;;18.33;64.76
32081;BME280;18593;51.426;7.030;2023-08-30T09:18:58;99574.75;;;18.35;63.97
32081;BME280;18593;51.426;7.030;2023-08-30T09:21:26;99583.38;;;18.37;63.11
32081;BME280;18593;51.426;7.030;2023-08-30T09:24:03;99582.81;;;18.40;64.96
32081;BME280;18593;51.426;7.030;2023-08-30T09:26:31;99575.56;;;18.36;63.28
32081;BME280;18593;51.426;7.030;2023-08-30T09:29:02;99577.72;;;18.34;64.74
32081;BME280;18593;51.426;7.030;2023-08-30T09:31:33;99571.88;;;18.26;63.92
32081;BME280;18593;51.426;7.030;2023-08-30T09:34:02;99564.38;;;18.18;64.29
32081;BME280;18593;51.426;7.030;2023-08-30T09:36:36;99572.50;;;18.13;65.24
32081;BME280;18593;51.426;7.030;2023-08-30T09:39:08;99568.75;;;18.09;65.09
32081;BME280;18593;51.426;7.030;2023-08-30T09:41:36;99569.91;;;18.03;64.28
32081;BME280;18593;51.426;7.030;2023-08-30T09:44:09;99571.81;;;18.02;65.27
32081;BME280;18593;51.426;7.030;2023-08-30T09:46:46;99562.94;;;17.97;65.61
32081;BME280;18593;51.426;7.030;2023-08-30T09:49:14;99572.34;;;17.99;66.30
32081;BME280;18593;51.426;7.030;2023-08-30T09:51:42;99571.84;;;17.97;66.13
32081;BME280;18593;51.426;7.030;2023-08-30T09:54:15;99575.66;;;17.91;67.36
32081;BME280;18593;51.426;7.030;2023-08-30T09:56:44;99577.41;;;17.77;67.03
32081;BME280;18593;51.426;7.030;2023-08-30T09:59:12;99576.34;;;17.68;68.52
32081;BME280;18593;51.426;7.030;2023-08-30T10:01:41;99576.31;;;17.78;69.82
32081;BME280;18593;51.426;7.030;2023-08-30T10:04:09;99570.09;;;17.78;70.46
32081;BME280;18593;51.426;7.030;2023-08-30T10:06:38;99568.50;;;17.71;70.34
32081;BME280;18593;51.426;7.030;2023-08-30T10:09:07;99559.56;;;17.76;71.89
32081;BME280;18593;51.426;7.030;2023-08-30T10:11:38;99557.72;;;17.71;72.58
32081;BME280;18593;51.426;7.030;2023-08-30T10:14:06;99563.91;;;17.72;73.17
32081;BME280;18593;51.426;7.030;2023-08-30T10:16:42;99558.56;;;17.67;72.91
32081;BME280;18593;51.426;7.030;2023-08-30T10:19:13;99558.00;;;17.65;72.62
32081;BME280;18593;51.426;7.030;2023-08-30T10:21:43;99557.22;;;17.64;72.97
32081;BME280;18593;51.426;7.030;2023-08-30T10:24:14;99558.56;;;17.67;73.22
32081;BME280;18593;51.426;7.030;2023-08-30T10:26:44;99558.56;;;17.67;74.02
32081;BME280;18593;51.426;7.030;2023-08-30T10:29:13;99563.97;;;17.62;74.45
32081;BME280;18593;51.426;7.030;2023-08-30T10:31:42;99556.97;;;17.61;74.82
32081;BME280;18593;51.426;7.030;2023-08-30T10:34:15;99568.88;;;17.55;74.56
32081;BME280;18593;51.426;7.030;2023-08-30T10:36:43;99572.66;;;17.54;75.10
32081;BME280;18593;51.426;7.030;2023-08-30T10:39:14;99570.25;;;17.52;75.12
32081;BME280;18593;51.426;7.030;2023-08-30T10:41:56;99571.31;;;17.51;74.94
32081;BME280;18593;51.426;7.030;2023-08-30T10:44:24;99574.28;;;17.49;75.75
32081;BME280;18593;51.426;7.030;2023-08-30T10:46:55;99580.22;;;17.46;76.18
32081;BME280;18593;51.426;7.030;2023-08-30T10:49:22;99572.44;;;17.45;76.06
32081;BME280;18593;51.426;7.030;2023-08-30T10:51:57;99570.03;;;17.43;76.34
32081;BME280;18593;51.426;7.030;2023-08-30T10:54:37;99573.53;;;17.44;76.93
32081;BME280;18593;51.426;7.030;2023-08-30T10:57:12;99569.22;;;17.43;77.13
32081;BME280;18593;51.426;7.030;2023-08-30T10:59:40;99574.31;;;17.44;76.81
32081;BME280;18593;51.426;7.030;2023-08-30T11:02:07;99574.03;;;17.46;77.50
32081;BME280;18593;51.426;7.030;2023-08-30T11:04:40;99571.63;;;17.44;77.74
32081;BME280;18593;51.426;7.030;2023-08-30T11:07:08;99569.72;;;17.45;78.08
32081;BME280;18593;51.426;7.030;2023-08-30T11:09:40;99576.47;;;17.47;78.38
32081;BME280;18593;51.426;7.030;2023-08-30T11:12:08;99570.53;;;17.45;78.06
32081;BME280;18593;51.426;7.030;2023-08-30T11:14:41;99567.03;;;17.45;77.86
32081;BME280;18593;51.426;7.030;2023-08-30T11:17:10;99565.72;;;17.42;78.09
32081;BME280;18593;51.426;7.030;2023-08-30T11:19:38;99565.19;;;17.40;78.56
32081;BME280;18593;51.426;7.030;2023-08-30T11:22:06;99559.31;;;17.33;78.59
32081;BME280;18593;51.426;7.030;2023-08-30T11:24:34;99561.75;;;17.30;78.55
32081;BME280;18593;51.426;7.030;2023-08-30T11:27:01;99564.44;;;17.30;78.84
32081;BME280;18593;51.426;7.030;2023-08-30T11:29:30;99562.28;;;17.27;79.06
32081;BME280;18593;51.426;7.030;2023-08-30T11:31:58;99557.53;;;17.08;80.20
32081;BME280;18593;51.426;7.030;2023-08-30T11:34:25;99572.69;;;16.94;80.71
32081;BME280;18593;51.426;7.030;2023-08-30T11:36:52;99568.59;;;17.02;80.67
32081;BME280;18593;51.426;7.030;2023-08-30T11:39:20;99566.44;;;17.09;80.62
32081;BME280;18593;51.426;7.030;2023-08-30T11:41:48;99561.06;;;17.04;80.52
32081;BME280;18593;51.426;7.030;2023-08-30T11:44:17;99557.78;;;17.07;80.79
32081;BME280;18593;51.426;7.030;2023-08-30T11:46:46;99554.00;;;17.13;80.76
32081;BME280;18593;51.426;7.030;2023-08-30T11:49:13;99562.06;;;17.13;80.74
32081;BME280;18593;51.426;7.030;2023-08-30T11:51:41;99557.75;;;17.17;80.96
32081;BME280;18593;51.426;7.030;2023-08-30T11:54:09;99557.75;;;17.17;80.24
32081;BME280;18593;51.426;7.030;2023-08-30T11:56:36;99565.03;;;17.16;80.34
32081;BME280;18593;51.426;7.030;2023-08-30T11:59:04;99563.72;;;17.14;80.00
32081;BME280;18593;51.426;7.030;2023-08-30T12:01:32;99561.03;;;17.09;80.60
32081;BME280;18593;51.426;7.030;2023-08-30T12:04:10;99568.03;;;17.10;80.77
32081;BME280;18593;51.426;7.030;2023-08-30T12:06:38;99558.88;;;17.06;80.50
32081;BME280;18593;51.426;7.030;2023-08-30T12:09:05;99567.22;;;17.09;80.53
32081;BME280;18593;51.426;7.030;2023-08-30T12:11:35;99563.16;;;17.12;80.75
32081;BME280;18593;51.426;7.030;2023-08-30T12:14:03;99562.63;;;17.15;80.58
32081;BME280;18593;51.426;7.030;2023-08-30T12:16:31;99570.41;;;17.16;81.00
32081;BME280;18593;51.426;7.030;2023-08-30T12:19:09;99566.38;;;17.19;80.89
32081;BME280;18593;51.426;7.030;2023-08-30T12:21:42;99561.53;;;17.16;81.05
32081;BME280;18593;51.426;7.030;2023-08-30T12:24:10;99547.50;;;17.19;80.94
32081;BME280;18593;51.426;7.030;2023-08-30T12:26:37;99563.41;;;17.20;80.85
32081;BME280;18593;51.426;7.030;2023-08-30T12:29:05;99561.22;;;17.22;81.29
32081;BME280;18593;51.426;7.030;2023-08-30T12:31:33;99554.22;;;17.21;81.20
32081;BME280;18593;51.426;7.030;2023-08-30T12:33:59;99551.81;;;17.20;81.27
32081;BME280;18593;51.426;7.030;2023-08-30T12:36:28;99543.19;;;17.23;81.66
32081;BME280;18593;51.426;7.030;2023-08-30T12:38:55;99541.81;;;17.25;81.83
32081;BME280;18593;51.426;7.030;2023-08-30T12:41:22;99544.75;;;17.29;81.96
32081;BME280;18593;51.426;7.030;2023-08-30T12:43:50;99539.91;;;17.26;81.99
32081;BME280;18593;51.426;7.030;2023-08-30T12:46:17;99528.03;;;17.32;82.17
32081;BME280;18593;51.426;7.030;2023-08-30T12:48:45;99530.16;;;17.35;81.74
32081;BME280;18593;51.426;7.030;2023-08-30T12:51:12;99530.47;;;17.34;81.68
32081;BME280;18593;51.426;7.030;2023-08-30T12:53:42;99539.13;;;17.25;82.01
32081;BME280;18593;51.426;7.030;2023-08-30T12:56:09;99529.69;;;17.28;81.96
32081;BME280;18593;51.426;7.030;2023-08-30T12:58:37;99537.78;;;17.28;82.72
32081;BME280;18593;51.426;7.030;2023-08-30T13:01:04;99535.59;;;17.30;82.21
32081;BME280;18593;51.426;7.030;2023-08-30T13:03:31;99536.69;;;17.29;82.02
32081;BME280;18593;51.426;7.030;2023-08-30T13:05:58;99528.31;;;17.31;81.74
32081;BME280;18593;51.426;7.030;2023-08-30T13:08:26;99530.72;;;17.32;82.04